Time;durP1;ratioP1;P1;durP2;ratioP2;P2;SDS_P1;SDS_P2;PMS_P1;PMS_P2;Temp;Humidity;BMP_temperature;BMP_pressure;BME280_temperature;BME280_humidity;BME280_pressure;Samples;Min_cycle;Max_cycle;Signal;HPM_P1;HPM_P2
2023/02/04 00:00:18;;;;;;;0.82;0.80;;;20.60;35.80;;;;;;5033671;28;20377;-66
2023/02/04 00:02:45;;;;;;;1.00;0.80;;;20.60;35.80;;;;;;5033513;28;20059;-66
2023/02/04 00:05:13;;;;;;;1.10;1.00;;;20.50;35.80;;;;;;5033652;28;20060;-66
2023/02/04 00:07:40;;;;;;;1.20;1.10;;;20.60;35.80;;;;;;5032855;28;20056;-66
2023/02/04 00:10:08;;;;;;;1.20;1.10;;;20.50;35.80;;;;;;5033042;28;20060;-66
2023/02/04 00:12:35;;;;;;;1.27;1.17;;;20.60;35.80;;;;;;5033311;28;20051;-66
2023/02/04 00:15:03;;;;;;;0.77;0.77;;;20.50;35.80;;;;;;5033610;28;20128;-66
2023/02/04 00:17:31;;;;;;;1.17;1.08;;;20.50;35.80;;;;;;5033226;28;20393;-66
2023/02/04 00:19:58;;;;;;;1.33;1.23;;;20.60;35.80;;;;;;5032320;28;20564;-66
2023/02/04 00:22:27;;;;;;;1.02;0.93;;;20.50;35.80;;;;;;5033182;28;20075;-66
2023/02/04 00:24:54;;;;;;;0.80;0.80;;;20.50;35.80;;;;;;5032598;28;20127;-66
2023/02/04 00:27:21;;;;;;;1.05;0.90;;;20.50;35.80;;;;;;5033094;28;20500;-66
2023/02/04 00:29:48;;;;;;;1.40;0.93;;;20.50;35.80;;;;;;5032882;28;20077;-67
2023/02/04 00:32:15;;;;;;;0.77;0.77;;;20.50;35.80;;;;;;5032722;28;20052;-66
2023/02/04 00:34:43;;;;;;;1.52;0.82;;;20.50;35.80;;;;;;5032725;28;20056;-66
2023/02/04 00:37:10;;;;;;;1.02;0.68;;;20.50;35.80;;;;;;5033032;28;20132;-66
2023/02/04 00:39:37;;;;;;;1.15;1.05;;;20.50;35.80;;;;;;5032856;28;20049;-66
2023/02/04 00:42:05;;;;;;;1.15;1.05;;;20.50;35.90;;;;;;5032631;28;20136;-66
2023/02/04 00:44:32;;;;;;;1.52;1.00;;;20.50;35.90;;;;;;5032900;28;20060;-66
2023/02/04 00:46:59;;;;;;;1.92;0.90;;;20.50;35.90;;;;;;5032664;28;20493;-66
2023/02/04 00:49:26;;;;;;;1.42;1.00;;;20.50;35.90;;;;;;5033005;28;20053;-66
2023/02/04 00:51:53;;;;;;;0.70;0.63;;;20.50;35.90;;;;;;5015769;28;20417;-66
2023/02/04 00:54:20;;;;;;;0.68;0.68;;;20.50;35.90;;;;;;5032882;28;20053;-66
2023/02/04 00:56:47;;;;;;;0.90;0.90;;;20.50;35.90;;;;;;5032642;28;20458;-66
2023/02/04 00:59:14;;;;;;;1.25;0.93;;;20.50;35.90;;;;;;5036604;28;20051;-66
2023/02/04 01:01:41;;;;;;;1.38;1.08;;;20.50;35.90;;;;;;5036787;28;20071;-66
2023/02/04 01:04:09;;;;;;;0.88;0.80;;;20.40;35.90;;;;;;5036867;28;20120;-66
2023/02/04 01:06:36;;;;;;;0.77;0.77;;;20.40;35.90;;;;;;5036495;28;20509;-66
2023/02/04 01:09:04;;;;;;;0.80;0.77;;;20.40;35.90;;;;;;5036593;28;20099;-66
2023/02/04 01:11:31;;;;;;;0.60;0.60;;;20.40;35.90;;;;;;5036947;28;20222;-66
2023/02/04 01:13:58;;;;;;;0.60;0.60;;;20.40;35.90;;;;;;5036657;28;20050;-66
2023/02/04 01:16:25;;;;;;;0.75;0.60;;;20.40;35.90;;;;;;5036357;28;20046;-66
2023/02/04 01:18:54;;;;;;;0.80;0.80;;;20.40;35.90;;;;;;5036170;28;20133;-66
2023/02/04 01:21:23;;;;;;;0.70;0.70;;;20.40;35.90;;;;;;5035445;28;20054;-66
2023/02/04 01:23:50;;;;;;;0.60;0.60;;;20.50;35.90;;;;;;5035908;28;20121;-66
2023/02/04 01:26:18;;;;;;;0.75;0.65;;;20.50;35.90;;;;;;5036472;28;20060;-66
2023/02/04 01:28:45;;;;;;;1.15;0.88;;;20.50;35.90;;;;;;5036279;28;20045;-66
2023/02/04 01:31:13;;;;;;;0.95;0.80;;;20.50;35.90;;;;;;5035768;28;20049;-66
2023/02/04 01:33:41;;;;;;;0.98;0.88;;;20.50;36.00;;;;;;5036524;28;20041;-66
2023/02/04 01:36:08;;;;;;;0.73;0.60;;;20.50;35.90;;;;;;5036105;28;20052;-66
2023/02/04 01:38:35;;;;;;;1.30;0.85;;;20.50;36.00;;;;;;5035943;28;20048;-66
2023/02/04 01:41:03;;;;;;;0.50;0.50;;;20.50;35.90;;;;;;5035922;28;20055;-66
2023/02/04 01:43:31;;;;;;;0.80;0.80;;;20.40;35.90;;;;;;5036464;28;20047;-66
2023/02/04 01:46:01;;;;;;;0.50;0.50;;;20.50;35.90;;;;;;5035943;28;20049;-66
2023/02/04 01:48:28;;;;;;;0.83;0.63;;;20.50;35.90;;;;;;5035940;28;20046;-66
2023/02/04 01:51:09;;;;;;;1.33;0.40;;;20.50;35.90;;;;;;5036030;28;20041;-66
2023/02/04 01:53:37;;;;;;;0.88;0.60;;;20.40;35.90;;;;;;5035778;28;20053;-66
2023/02/04 01:56:19;;;;;;;2.47;0.60;;;20.40;35.90;;;;;;5035963;28;20402;-67
2023/02/04 01:58:47;;;;;;;1.00;0.70;;;20.40;35.90;;;;;;5018195;28;20278;-66
2023/02/04 02:01:32;;;;;;;0.60;0.60;;;20.40;35.90;;;;;;5035729;28;20046;-67
2023/02/04 02:04:00;;;;;;;0.68;0.50;;;20.40;35.90;;;;;;5035496;28;20141;-66
2023/02/04 02:06:28;;;;;;;0.47;0.47;;;20.40;35.90;;;;;;5035578;28;20531;-66
2023/02/04 02:08:57;;;;;;;1.00;0.80;;;20.40;35.90;;;;;;5035621;28;20107;-66
2023/02/04 02:11:25;;;;;;;0.63;0.60;;;20.40;35.90;;;;;;5035453;28;20048;-67
2023/02/04 02:13:53;;;;;;;1.23;0.60;;;20.40;35.90;;;;;;5035801;28;20057;-66
2023/02/04 02:16:22;;;;;;;1.00;0.73;;;20.40;35.90;;;;;;5035353;28;20141;-66
2023/02/04 02:18:52;;;;;;;1.35;0.68;;;20.40;35.90;;;;;;5035629;28;20143;-66
2023/02/04 02:21:29;;;;;;;0.68;0.50;;;20.40;35.90;;;;;;5034887;28;20508;-66
2023/02/04 02:23:57;;;;;;;1.10;0.77;;;20.40;35.90;;;;;;5035329;28;20051;-66
2023/02/04 02:26:24;;;;;;;0.60;0.60;;;20.40;35.90;;;;;;5035243;28;20144;-66
2023/02/04 02:28:51;;;;;;;0.63;0.52;;;20.40;35.90;;;;;;5035399;28;20401;-66
2023/02/04 02:31:21;;;;;;;0.88;0.70;;;20.40;35.90;;;;;;5035043;28;20386;-66
2023/02/04 02:33:49;;;;;;;0.40;0.40;;;20.40;35.90;;;;;;5035176;28;20482;-66
2023/02/04 02:36:16;;;;;;;0.60;0.47;;;20.40;35.90;;;;;;5035069;28;20060;-66
2023/02/04 02:38:43;;;;;;;0.40;0.40;;;20.40;35.90;;;;;;5034863;28;20045;-66
2023/02/04 02:41:10;;;;;;;0.47;0.47;;;20.40;35.90;;;;;;5035264;28;20128;-67
2023/02/04 02:43:38;;;;;;;0.63;0.63;;;20.40;35.90;;;;;;5034943;28;20056;-66
2023/02/04 02:46:05;;;;;;;0.63;0.57;;;20.40;35.90;;;;;;5034830;28;20053;-66
2023/02/04 02:48:33;;;;;;;0.85;0.63;;;20.30;35.90;;;;;;5035247;28;20485;-66
2023/02/04 02:51:00;;;;;;;1.00;0.65;;;20.30;35.80;;;;;;5034953;28;20075;-66
2023/02/04 02:53:27;;;;;;;1.65;0.50;;;20.30;35.80;;;;;;5035110;28;20053;-66
2023/02/04 02:55:54;;;;;;;0.60;0.60;;;20.30;35.90;;;;;;5017177;28;20095;-66
2023/02/04 02:58:31;;;;;;;0.70;0.70;;;20.30;35.90;;;;;;5034278;28;20049;-66
2023/02/04 03:01:07;;;;;;;0.40;0.40;;;20.30;35.90;;;;;;5034487;28;20087;-66
2023/02/04 03:03:38;;;;;;;0.32;0.30;;;20.30;35.90;;;;;;5034608;28;20052;-66
2023/02/04 03:06:13;;;;;;;0.65;0.65;;;20.30;35.90;;;;;;5034794;28;20056;-66
2023/02/04 03:08:42;;;;;;;0.40;0.40;;;20.30;35.90;;;;;;5034342;28;20401;-66
2023/02/04 03:11:09;;;;;;;0.63;0.47;;;20.30;35.90;;;;;;5034263;28;20050;-66
2023/02/04 03:13:37;;;;;;;0.82;0.60;;;20.30;36.00;;;;;;5034497;28;20421;-66
2023/02/04 03:16:06;;;;;;;1.20;0.57;;;20.30;36.00;;;;;;5034397;28;20049;-66
2023/02/04 03:18:35;;;;;;;0.63;0.50;;;20.30;36.00;;;;;;5034602;28;20490;-66
2023/02/04 03:21:03;;;;;;;0.50;0.50;;;20.30;36.00;;;;;;5033428;28;20056;-66
2023/02/04 03:23:32;;;;;;;0.43;0.35;;;20.30;36.00;;;;;;5034355;28;20045;-66
2023/02/04 03:26:00;;;;;;;0.50;0.32;;;20.30;36.00;;;;;;5034141;28;20128;-66
2023/02/04 03:28:29;;;;;;;0.50;0.43;;;20.30;36.00;;;;;;5033785;28;20492;-66
2023/02/04 03:30:57;;;;;;;0.38;0.38;;;20.30;36.00;;;;;;5033771;28;20050;-66
2023/02/04 03:33:27;;;;;;;0.77;0.50;;;20.30;36.00;;;;;;5034181;28;20052;-66
2023/02/04 03:35:54;;;;;;;0.40;0.40;;;20.30;36.00;;;;;;5016792;28;20049;-66
2023/02/04 03:38:21;;;;;;;0.85;0.32;;;20.30;36.00;;;;;;5033974;28;20050;-66
2023/02/04 03:40:49;;;;;;;1.15;0.60;;;20.30;36.00;;;;;;5016407;28;20053;-66
2023/02/04 03:43:16;;;;;;;0.40;0.40;;;20.30;35.90;;;;;;5033959;28;20049;-66
2023/02/04 03:45:43;;;;;;;0.65;0.60;;;20.30;36.00;;;;;;5033645;28;20045;-66
2023/02/04 03:48:12;;;;;;;0.43;0.35;;;20.30;36.00;;;;;;5033957;28;20382;-66
2023/02/04 03:50:39;;;;;;;0.88;0.35;;;20.30;35.90;;;;;;5033376;28;20504;-66
2023/02/04 03:53:06;;;;;;;0.38;0.35;;;20.40;36.00;;;;;;5034107;28;20049;-66
2023/02/04 03:55:34;;;;;;;0.63;0.50;;;20.30;35.90;;;;;;5033581;28;20481;-66
2023/02/04 03:58:03;;;;;;;0.47;0.30;;;20.30;35.90;;;;;;5033924;28;20049;-66
2023/02/04 04:00:31;;;;;;;0.40;0.20;;;20.30;35.90;;;;;;5033037;28;20500;-67
2023/02/04 04:02:58;;;;;;;0.20;0.20;;;20.30;35.90;;;;;;5033439;28;20088;-66
2023/02/04 04:05:27;;;;;;;0.35;0.30;;;20.30;35.90;;;;;;5033383;28;20053;-67
2023/02/04 04:07:54;;;;;;;0.52;0.40;;;20.30;35.90;;;;;;5033535;28;20049;-66
2023/02/04 04:10:21;;;;;;;0.20;0.17;;;20.30;35.90;;;;;;5033456;28;20107;-66
2023/02/04 04:12:48;;;;;;;0.30;0.30;;;20.30;36.00;;;;;;5033590;28;20049;-66
2023/02/04 04:15:16;;;;;;;0.40;0.40;;;20.30;36.00;;;;;;5033336;28;20060;-66
2023/02/04 04:17:43;;;;;;;0.22;0.22;;;20.30;36.00;;;;;;5033162;28;20132;-66
2023/02/04 04:20:11;;;;;;;0.75;0.50;;;20.30;36.00;;;;;;5033261;28;20084;-66
2023/02/04 04:22:38;;;;;;;0.20;0.20;;;20.30;36.00;;;;;;5033339;28;20405;-66
2023/02/04 04:25:06;;;;;;;0.20;0.20;;;20.30;36.00;;;;;;5033371;28;20045;-66
2023/02/04 04:27:33;;;;;;;0.25;0.20;;;20.30;36.00;;;;;;5033183;28;20049;-66
2023/02/04 04:30:01;;;;;;;0.20;0.20;;;20.30;36.00;;;;;;5033075;28;20061;-66
2023/02/04 04:32:28;;;;;;;0.30;0.30;;;20.30;36.00;;;;;;5031962;28;20045;-66
2023/02/04 04:34:55;;;;;;;0.20;0.20;;;20.30;36.00;;;;;;5032476;28;20045;-66
2023/02/04 04:37:22;;;;;;;0.30;0.30;;;20.30;36.00;;;;;;5032616;28;20054;-66
2023/02/04 04:39:49;;;;;;;0.57;0.57;;;20.30;36.00;;;;;;5033003;28;20045;-66
2023/02/04 04:42:16;;;;;;;0.52;0.30;;;20.30;36.00;;;;;;5033017;28;20060;-66
2023/02/04 04:44:43;;;;;;;0.43;0.22;;;20.30;36.00;;;;;;5032871;28;20049;-66
2023/02/04 04:47:10;;;;;;;0.20;0.10;;;20.30;36.00;;;;;;5032912;28;20063;-66
2023/02/04 04:49:37;;;;;;;1.58;0.30;;;20.30;36.00;;;;;;5032945;28;20049;-66
2023/02/04 04:52:04;;;;;;;0.35;0.20;;;20.30;36.00;;;;;;5032324;28;20057;-66
2023/02/04 04:54:31;;;;;;;0.68;0.30;;;20.30;36.10;;;;;;5032782;28;20049;-67
2023/02/04 04:56:58;;;;;;;0.10;0.10;;;20.30;36.00;;;;;;5033031;28;20393;-66
2023/02/04 04:59:25;;;;;;;0.88;0.47;;;20.30;36.00;;;;;;5032549;28;20054;-66
2023/02/04 05:01:52;;;;;;;0.22;0.22;;;20.30;36.10;;;;;;5032906;28;20056;-66
2023/02/04 05:04:20;;;;;;;0.30;0.25;;;20.20;36.00;;;;;;5032533;28;20490;-66
2023/02/04 05:06:47;;;;;;;0.43;0.20;;;20.30;36.10;;;;;;5032106;28;20093;-66
2023/02/04 05:09:16;;;;;;;0.32;0.32;;;20.30;36.10;;;;;;5032789;28;20045;-66
2023/02/04 05:11:43;;;;;;;1.10;0.43;;;20.30;36.10;;;;;;5032633;28;20493;-66
2023/02/04 05:14:10;;;;;;;2.30;0.30;;;20.30;36.10;;;;;;5032334;28;20133;-66
2023/02/04 05:16:37;;;;;;;0.80;0.30;;;20.30;36.10;;;;;;5032493;28;20064;-66
2023/02/04 05:19:04;;;;;;;0.30;0.30;;;20.30;36.10;;;;;;5032770;28;20042;-66
2023/02/04 05:21:31;;;;;;;0.20;0.20;;;20.30;36.10;;;;;;5032610;28;20492;-66
2023/02/04 05:23:58;;;;;;;0.30;0.30;;;20.30;36.10;;;;;;5032671;28;20049;-66
2023/02/04 05:26:26;;;;;;;0.25;0.13;;;20.30;36.10;;;;;;5032649;28;20049;-66
2023/02/04 05:28:59;;;;;;;0.20;0.20;;;20.30;36.10;;;;;;5032398;28;20141;-66
2023/02/04 05:31:26;;;;;;;0.40;0.20;;;20.20;36.10;;;;;;5032542;28;20050;-66
2023/02/04 05:33:53;;;;;;;0.13;0.10;;;20.30;36.10;;;;;;5032452;28;20486;-65
2023/02/04 05:36:21;;;;;;;0.10;0.10;;;20.30;36.10;;;;;;5032516;28;20089;-66
2023/02/04 05:38:48;;;;;;;0.40;0.20;;;20.30;36.00;;;;;;5032239;28;20416;-66
2023/02/04 05:41:15;;;;;;;0.30;0.20;;;20.30;35.80;;;;;;5032210;28;20052;-66
2023/02/04 05:43:42;;;;;;;0.17;0.17;;;20.30;35.70;;;;;;5033503;28;20050;-66
2023/02/04 05:46:09;;;;;;;0.20;0.20;;;20.30;35.70;;;;;;5035974;28;20053;-66
2023/02/04 05:48:38;;;;;;;0.30;0.17;;;20.20;35.70;;;;;;5036338;28;20053;-65
2023/02/04 05:51:05;;;;;;;0.32;0.32;;;20.20;35.70;;;;;;5035886;28;20049;-66
2023/02/04 05:53:33;;;;;;;0.85;0.13;;;20.20;35.70;;;;;;5036251;28;20128;-65
2023/02/04 05:56:00;;;;;;;0.47;0.30;;;20.20;35.60;;;;;;5035889;28;20117;-65
2023/02/04 05:58:32;;;;;;;0.57;0.20;;;20.30;35.70;;;;;;5035850;28;20050;-66
2023/02/04 06:01:00;;;;;;;0.15;0.15;;;20.30;35.60;;;;;;5035793;28;20576;-66
2023/02/04 06:03:28;;;;;;;0.20;0.20;;;20.30;35.50;;;;;;5035719;28;20049;-65
2023/02/04 06:05:56;;;;;;;0.35;0.30;;;20.30;35.50;;;;;;5017920;28;20045;-65
2023/02/04 06:08:23;;;;;;;0.30;0.30;;;20.30;35.40;;;;;;5035622;28;20088;-66
2023/02/04 06:10:50;;;;;;;0.20;0.20;;;20.30;35.40;;;;;;5035468;28;20050;-66
2023/02/04 06:13:17;;;;;;;0.47;0.47;;;20.30;35.30;;;;;;5035553;28;20053;-66
2023/02/04 06:15:44;;;;;;;0.22;0.22;;;20.30;35.30;;;;;;5035428;28;20056;-65
2023/02/04 06:18:12;;;;;;;0.38;0.35;;;20.30;35.20;;;;;;5035274;28;20045;-66
2023/02/04 06:20:39;;;;;;;0.20;0.20;;;20.30;35.20;;;;;;5035400;28;20048;-66
2023/02/04 06:23:07;;;;;;;0.20;0.20;;;20.30;35.10;;;;;;5035621;28;20052;-66
2023/02/04 06:25:34;;;;;;;0.55;0.30;;;20.40;35.10;;;;;;5035657;28;20049;-66
2023/02/04 06:28:01;;;;;;;0.30;0.20;;;20.30;35.00;;;;;;5035293;28;20495;-66
2023/02/04 06:30:28;;;;;;;0.10;0.10;;;20.40;35.00;;;;;;5034959;28;20049;-66
2023/02/04 06:32:55;;;;;;;0.28;0.20;;;20.40;35.00;;;;;;5034958;28;20054;-66
2023/02/04 06:35:22;;;;;;;0.30;0.20;;;20.40;34.80;;;;;;5035096;28;20133;-66
2023/02/04 06:37:49;;;;;;;0.30;0.30;;;20.40;34.80;;;;;;5035403;28;20060;-67
2023/02/04 06:40:16;;;;;;;0.20;0.10;;;20.40;34.80;;;;;;5033534;28;20041;-66
2023/02/04 06:42:44;;;;;;;0.85;0.20;;;20.40;34.90;;;;;;5035073;28;20056;-66
2023/02/04 06:45:11;;;;;;;1.55;0.25;;;20.40;34.90;;;;;;5035374;28;20042;-66
2023/02/04 06:47:38;;;;;;;0.28;0.20;;;20.30;34.90;;;;;;5032221;28;20144;-66
2023/02/04 06:50:05;;;;;;;0.30;0.10;;;20.30;35.00;;;;;;5032767;28;20481;-66
2023/02/04 06:52:32;;;;;;;0.10;0.10;;;20.30;35.10;;;;;;5034240;28;20053;-66
2023/02/04 06:54:59;;;;;;;0.30;0.17;;;20.30;35.20;;;;;;5033839;28;20052;-65
2023/02/04 06:57:26;;;;;;;0.03;0.03;;;20.20;35.20;;;;;;5034782;28;20072;-66
2023/02/04 06:59:53;;;;;;;0.28;0.10;;;20.20;35.20;;;;;;5033972;28;20057;-67
2023/02/04 07:02:20;;;;;;;0.10;0.10;;;20.20;35.20;;;;;;5035031;28;20046;-66
2023/02/04 07:04:48;;;;;;;0.10;0.10;;;20.20;35.20;;;;;;5034292;28;20058;-66
2023/02/04 07:07:15;;;;;;;0.10;0.10;;;20.30;35.20;;;;;;5035045;28;20413;-66
2023/02/04 07:09:42;;;;;;;0.40;0.20;;;20.30;35.10;;;;;;5016603;28;20037;-66
2023/02/04 07:12:09;;;;;;;1.17;0.22;;;20.30;35.10;;;;;;5034085;28;20547;-66
2023/02/04 07:14:36;;;;;;;0.63;0.30;;;20.30;35.00;;;;;;5034256;28;20041;-66
2023/02/04 07:17:03;;;;;;;0.13;0.13;;;20.30;34.90;;;;;;5034165;28;20057;-66
2023/02/04 07:19:30;;;;;;;2.13;0.30;;;20.30;34.80;;;;;;5033525;28;20136;-66
2023/02/04 07:21:57;;;;;;;0.28;0.10;;;20.30;34.70;;;;;;5033849;28;20490;-67
2023/02/04 07:24:24;;;;;;;0.20;0.20;;;20.30;34.70;;;;;;5034272;28;20041;-66
2023/02/04 07:26:51;;;;;;;0.10;0.10;;;20.40;34.70;;;;;;5034347;28;20375;-66
2023/02/04 07:29:19;;;;;;;0.10;0.10;;;20.40;34.60;;;;;;5034409;28;20045;-66
2023/02/04 07:31:52;;;;;;;0.20;0.20;;;20.30;34.50;;;;;;5033989;28;20053;-66
2023/02/04 07:34:19;;;;;;;0.10;0.10;;;20.40;34.40;;;;;;5034067;28;20045;-66
2023/02/04 07:36:46;;;;;;;0.10;0.10;;;20.40;34.30;;;;;;5033852;28;20056;-66
2023/02/04 07:39:14;;;;;;;0.35;0.10;;;20.40;34.20;;;;;;5034310;28;20183;-66
2023/02/04 07:41:41;;;;;;;0.43;0.25;;;20.40;34.10;;;;;;5033816;28;20049;-66
2023/02/04 07:44:08;;;;;;;0.47;0.20;;;20.40;34.00;;;;;;5034214;28;20137;-66
2023/02/04 07:46:35;;;;;;;0.52;0.10;;;20.40;33.90;;;;;;5033953;28;20409;-65
2023/02/04 07:49:02;;;;;;;2.22;0.20;;;20.40;33.80;;;;;;5032434;28;20415;-66
2023/02/04 07:51:30;;;;;;;0.30;0.30;;;20.40;33.70;;;;;;5031284;28;20392;-66
2023/02/04 07:53:57;;;;;;;1.27;0.75;;;20.40;33.50;;;;;;5033570;28;20439;-66
2023/02/04 07:56:24;;;;;;;14.15;0.65;;;20.40;33.50;;;;;;5033657;28;20049;-66
2023/02/04 07:58:51;;;;;;;0.20;0.20;;;20.50;33.60;;;;;;5033899;28;20056;-66
2023/02/04 08:01:18;;;;;;;0.82;0.28;;;20.40;33.30;;;;;;5032571;28;20500;-65
2023/02/04 08:03:45;;;;;;;0.63;0.50;;;20.50;33.20;;;;;;5033710;28;20552;-65
2023/02/04 08:06:12;;;;;;;0.30;0.20;;;20.50;33.20;;;;;;5033403;28;20046;-66
2023/02/04 08:08:39;;;;;;;0.75;0.20;;;20.50;33.20;;;;;;5014423;28;20051;-65
2023/02/04 08:11:07;;;;;;;0.88;0.28;;;20.50;33.00;;;;;;5026879;28;20049;-65
2023/02/04 08:13:34;;;;;;;0.28;0.17;;;20.50;32.80;;;;;;5033635;28;20474;-65
2023/02/04 08:16:01;;;;;;;0.85;0.30;;;20.50;33.00;;;;;;5033452;28;20125;-66
2023/02/04 08:18:29;;;;;;;0.63;0.20;;;20.40;33.10;;;;;;5033083;28;20075;-65
2023/02/04 08:20:58;;;;;;;1.13;0.30;;;20.40;33.00;;;;;;5032841;28;20091;-65
2023/02/04 08:23:25;;;;;;;0.63;0.50;;;20.40;33.00;;;;;;5033331;28;20045;-66
2023/02/04 08:25:52;;;;;;;0.50;0.22;;;20.40;32.90;;;;;;5033023;28;20061;-65
2023/02/04 08:28:19;;;;;;;2.50;0.30;;;20.40;32.80;;;;;;5033492;28;20053;-65
2023/02/04 08:30:46;;;;;;;5.35;1.17;;;20.40;32.70;;;;;;5033112;28;20045;-65
2023/02/04 08:33:13;;;;;;;0.50;0.25;;;20.40;32.60;;;;;;5033379;28;20081;-65
2023/02/04 08:35:40;;;;;;;1.17;0.40;;;20.40;32.50;;;;;;5033087;28;20508;-65
2023/02/04 08:38:07;;;;;;;0.25;0.20;;;20.50;32.40;;;;;;5033111;28;20045;-66
2023/02/04 08:40:34;;;;;;;0.50;0.45;;;20.50;32.20;;;;;;5032657;28;20056;-65
2023/02/04 08:43:02;;;;;;;0.50;0.50;;;20.50;32.00;;;;;;5032709;28;20064;-65
2023/02/04 08:45:29;;;;;;;2.20;0.43;;;20.50;31.80;;;;;;5032821;28;20050;-65
2023/02/04 08:47:56;;;;;;;0.50;0.40;;;20.50;31.60;;;;;;5033015;28;20413;-65
2023/02/04 08:50:23;;;;;;;2.03;0.98;;;20.60;31.50;;;;;;5033261;28;20072;-65
2023/02/04 08:52:50;;;;;;;1.25;0.43;;;20.60;31.30;;;;;;5032299;28;20136;-65
2023/02/04 08:55:21;;;;;;;0.80;0.38;;;20.60;31.20;;;;;;5033197;28;20097;-65
2023/02/04 08:57:48;;;;;;;0.60;0.60;;;20.60;31.00;;;;;;5033097;28;20057;-65
2023/02/04 09:00:15;;;;;;;0.47;0.38;;;20.60;30.80;;;;;;5032411;28;20046;-66
2023/02/04 09:02:42;;;;;;;17.42;0.98;;;20.60;30.70;;;;;;5032761;28;20085;-65
2023/02/04 09:05:09;;;;;;;0.95;0.90;;;20.60;30.60;;;;;;5015315;28;20490;-65
2023/02/04 09:07:36;;;;;;;1.30;0.60;;;20.60;30.40;;;;;;5032561;28;20050;-65
2023/02/04 09:10:03;;;;;;;1.58;0.82;;;20.60;30.30;;;;;;5032641;28;20167;-65
2023/02/04 09:12:30;;;;;;;0.47;0.47;;;20.60;30.70;;;;;;5033100;28;20413;-65
2023/02/04 09:14:57;;;;;;;2.33;0.73;;;20.70;30.00;;;;;;5032983;28;20053;-65
2023/02/04 09:17:24;;;;;;;1.98;0.65;;;20.60;30.00;;;;;;5032359;28;20056;-65
2023/02/04 09:19:51;;;;;;;1.60;0.70;;;20.60;29.90;;;;;;5035687;28;20056;-65
2023/02/04 09:22:18;;;;;;;0.80;0.63;;;20.70;29.90;;;;;;5036845;28;20048;-66
2023/02/04 09:24:45;;;;;;;1.05;0.70;;;20.70;29.90;;;;;;5019073;28;20507;-65
2023/02/04 09:27:13;;;;;;;2.22;0.50;;;20.70;29.80;;;;;;5036265;28;20490;-65
2023/02/04 09:29:40;;;;;;;0.40;0.40;;;20.70;29.80;;;;;;5036824;28;20065;-65
2023/02/04 09:32:07;;;;;;;3.60;0.60;;;20.70;29.70;;;;;;5036086;28;20050;-65
2023/02/04 09:34:34;;;;;;;2.53;1.05;;;20.70;29.60;;;;;;5036397;28;20107;-65
2023/02/04 09:37:02;;;;;;;0.70;0.70;;;20.80;29.50;;;;;;5036008;28;20049;-65
2023/02/04 09:39:29;;;;;;;1.10;0.80;;;20.80;29.50;;;;;;5036510;28;20274;-65
2023/02/04 09:41:58;;;;;;;1.02;0.68;;;20.80;29.40;;;;;;5035641;28;20049;-65
2023/02/04 09:44:27;;;;;;;0.60;0.47;;;20.80;29.30;;;;;;5036080;28;20045;-65
2023/02/04 09:46:58;;;;;;;3.58;0.40;;;20.90;29.30;;;;;;5036175;28;20436;-65
2023/02/04 09:49:27;;;;;;;1.25;0.77;;;20.90;29.20;;;;;;5035597;28;20049;-65
2023/02/04 09:51:55;;;;;;;1.00;0.77;;;20.90;29.20;;;;;;5035292;28;20404;-65
2023/02/04 09:54:23;;;;;;;0.50;0.50;;;20.90;29.10;;;;;;5036340;28;20469;-66
2023/02/04 09:56:51;;;;;;;2.00;0.55;;;20.90;29.10;;;;;;5035850;28;20057;-65
2023/02/04 09:59:22;;;;;;;1.00;0.93;;;20.90;29.10;;;;;;5036140;28;20056;-65
2023/02/04 10:01:56;;;;;;;3.42;0.60;;;20.90;29.10;;;;;;5035264;28;20041;-65
2023/02/04 10:04:23;;;;;;;0.68;0.60;;;20.90;29.00;;;;;;5036129;28;20124;-66
2023/02/04 10:06:50;;;;;;;1.02;0.60;;;20.90;29.00;;;;;;5035457;28;20057;-65
2023/02/04 10:09:18;;;;;;;0.95;0.65;;;20.90;29.10;;;;;;5035635;28;20045;-65
2023/02/04 10:11:47;;;;;;;6.43;0.85;;;20.90;29.00;;;;;;5035640;28;20049;-65
2023/02/04 10:14:18;;;;;;;1.23;0.85;;;20.90;29.10;;;;;;5035624;28;20045;-65
2023/02/04 10:16:54;;;;;;;0.77;0.60;;;20.90;29.10;;;;;;5029133;28;20534;-65
2023/02/04 10:19:24;;;;;;;1.27;0.65;;;21.00;29.20;;;;;;5031952;28;20088;-66
2023/02/04 10:21:52;;;;;;;0.98;0.65;;;21.00;29.20;;;;;;5033019;28;20509;-65
2023/02/04 10:24:25;;;;;;;1.08;0.60;;;21.00;29.10;;;;;;5031239;28;20053;-65
2023/02/04 10:26:53;;;;;;;5.85;0.80;;;21.00;29.10;;;;;;5035550;28;20069;-65
2023/02/04 10:29:24;;;;;;;0.90;0.50;;;21.00;29.10;;;;;;5032256;28;20053;-65
2023/02/04 10:31:52;;;;;;;1.52;0.60;;;21.00;29.00;;;;;;5032618;28;20056;-65
2023/02/04 10:34:33;;;;;;;0.43;0.43;;;21.00;29.00;;;;;;5032008;28;20448;-65
2023/02/04 10:37:10;;;;;;;;;;;21.00;29.40;;;;;;5035239;28;20487;-65
2023/02/04 10:39:42;;;;;;;1.50;0.38;;;21.00;28.90;;;;;;5033610;28;20391;-65
2023/02/04 10:42:27;;;;;;;1.17;0.30;;;21.10;28.80;;;;;;5033565;28;20059;-65
2023/02/04 10:44:54;;;;;;;0.52;0.30;;;21.10;28.80;;;;;;5033130;28;20053;-66
2023/02/04 10:47:25;;;;;;;1.00;0.43;;;21.10;28.70;;;;;;5032769;28;20048;-65
2023/02/04 10:50:05;;;;;;;1.60;0.50;;;21.10;28.60;;;;;;5017692;28;20464;-65
2023/02/04 10:52:38;;;;;;;0.52;0.40;;;21.10;28.50;;;;;;5034952;28;20049;-66
2023/02/04 10:55:12;;;;;;;0.88;0.30;;;21.10;28.50;;;;;;5034644;28;20054;-66
2023/02/04 10:57:40;;;;;;;0.50;0.30;;;21.10;28.40;;;;;;5034683;28;20064;-65
2023/02/04 11:00:21;;;;;;;0.43;0.20;;;21.10;28.40;;;;;;5034568;28;20045;-65
2023/02/04 11:02:58;;;;;;;0.70;0.30;;;21.10;28.30;;;;;;5034802;28;20053;-66
2023/02/04 11:05:33;;;;;;;1.30;0.40;;;21.10;28.30;;;;;;5034757;28;20052;-66
2023/02/04 11:08:02;;;;;;;2.65;0.50;;;21.10;28.20;;;;;;5034629;28;20049;-66
2023/02/04 11:10:33;;;;;;;0.40;0.30;;;21.10;28.20;;;;;;5034587;28;20124;-66
2023/02/04 11:13:03;;;;;;;0.93;0.50;;;21.10;28.20;;;;;;5033336;28;20100;-66
2023/02/04 11:15:44;;;;;;;0.60;0.43;;;21.10;28.10;;;;;;5034814;28;20501;-66
2023/02/04 11:18:28;;;;;;;0.65;0.20;;;21.10;28.10;;;;;;5034191;28;20068;-66
2023/02/04 11:20:57;;;;;;;0.75;0.40;;;21.10;28.00;;;;;;5034170;28;20049;-66
2023/02/04 11:23:32;;;;;;;1.95;0.38;;;21.10;27.90;;;;;;5034123;28;20059;-66
2023/02/04 11:26:07;;;;;;;0.40;0.40;;;21.10;27.80;;;;;;5034260;28;20053;-66
2023/02/04 11:28:55;;;;;;;0.63;0.45;;;21.10;27.70;;;;;;5033937;28;20140;-67
2023/02/04 11:31:41;;;;;;;1.00;0.32;;;21.10;27.60;;;;;;5034019;28;20049;-66
2023/02/04 11:34:26;;;;;;;0.30;0.30;;;21.10;27.60;;;;;;5034330;28;20104;-66
2023/02/04 11:37:06;;;;;;;0.20;0.20;;;21.10;27.60;;;;;;5034142;28;20045;-66
2023/02/04 11:39:43;;;;;;;1.73;0.30;;;21.00;27.60;;;;;;5034350;28;20131;-66
2023/02/04 11:42:40;;;;;;;0.60;0.60;;;21.00;27.60;;;;;;5033330;28;20049;-65
2023/02/04 11:45:26;;;;;;;0.85;0.63;;;21.00;27.60;;;;;;5033546;28;20085;-66
2023/02/04 11:47:56;;;;;;;1.27;0.43;;;21.00;27.70;;;;;;5033757;28;20055;-66
2023/02/04 11:50:30;;;;;;;1.02;0.55;;;21.00;27.70;;;;;;5034129;28;20049;-66
2023/02/04 11:53:03;;;;;;;0.30;0.22;;;21.00;27.60;;;;;;5034016;28;20045;-66
2023/02/04 11:55:34;;;;;;;0.55;0.28;;;21.00;27.60;;;;;;5034011;28;20421;-66
2023/02/04 11:58:01;;;;;;;;;;;21.00;27.60;;;;;;5016982;28;20049;-66
2023/02/04 12:00:30;;;;;;;0.50;0.15;;;21.00;27.60;;;;;;5033866;28;20027;-66
2023/02/04 12:03:00;;;;;;;1.55;0.50;;;21.10;27.60;;;;;;5016061;28;20053;-66
2023/02/04 12:05:42;;;;;;;0.63;0.30;;;21.00;27.60;;;;;;5033624;28;20056;-66
2023/02/04 12:08:31;;;;;;;0.65;0.52;;;21.10;27.60;;;;;;5016207;28;20057;-65
2023/02/04 12:11:24;;;;;;;0.90;0.45;;;21.00;27.60;;;;;;5033835;28;20132;-66
2023/02/04 12:13:55;;;;;;;0.57;0.50;;;21.00;27.60;;;;;;5033231;28;20049;-66
2023/02/04 12:16:26;;;;;;;1.23;0.60;;;21.10;27.60;;;;;;5029226;28;20053;-66
2023/02/04 12:18:54;;;;;;;0.25;0.25;;;21.10;27.60;;;;;;5033129;28;20127;-66
2023/02/04 12:21:21;;;;;;;0.45;0.45;;;21.00;27.60;;;;;;5031191;28;20056;-66
2023/02/04 12:23:48;;;;;;;0.82;0.70;;;21.10;27.60;;;;;;5031669;28;20059;-66
2023/02/04 12:26:15;;;;;;;0.45;0.45;;;21.10;27.60;;;;;;5032474;28;20045;-66
2023/02/04 12:28:42;;;;;;;1.10;0.47;;;21.10;27.60;;;;;;5031463;28;20052;-66
2023/02/04 12:31:09;;;;;;;0.52;0.50;;;21.10;27.50;;;;;;5031738;28;20049;-65
2023/02/04 12:33:36;;;;;;;1.85;0.68;;;21.10;27.60;;;;;;5030853;28;20050;-65
2023/02/04 12:36:04;;;;;;;1.60;0.60;;;21.00;27.50;;;;;;5031008;28;20052;-66
2023/02/04 12:38:31;;;;;;;0.32;0.32;;;21.10;27.50;;;;;;5030910;28;20060;-66
2023/02/04 12:40:58;;;;;;;0.50;0.32;;;21.00;27.40;;;;;;5029906;28;20057;-66
2023/02/04 12:43:25;;;;;;;0.57;0.55;;;21.00;27.30;;;;;;5032040;28;20045;-65
2023/02/04 12:45:54;;;;;;;0.43;0.43;;;21.00;27.30;;;;;;5031284;28;20048;-66
2023/02/04 12:48:21;;;;;;;0.40;0.30;;;21.00;27.30;;;;;;5033206;28;20309;-66
2023/02/04 12:50:48;;;;;;;0.40;0.38;;;21.00;27.30;;;;;;5030219;28;20080;-66
2023/02/04 12:53:15;;;;;;;0.40;0.30;;;21.00;27.30;;;;;;5030758;28;20054;-65
2023/02/04 12:55:42;;;;;;;0.50;0.47;;;21.00;27.40;;;;;;5009731;28;20053;-65